Time;durP1;ratioP1;P1;durP2;ratioP2;P2;SDS_P1;SDS_P2;PMS_P1;PMS_P2;Temp;Humidity;BMP_temperature;BMP_pressure;BME280_temperature;BME280_humidity;BME280_pressure;Samples;Min_cycle;Max_cycle;Signal;HPM_P1;HPM_P2
2022/04/07 00:01:54;;;;;;;12.43;9.10;;;9.90;99.90;;;;;;4949720;28;20183;-61
2022/04/07 00:04:21;;;;;;;14.80;9.57;;;9.90;99.90;;;;;;4960843;28;20047;-61
2022/04/07 00:06:47;;;;;;;12.18;9.52;;;9.90;99.90;;;;;;4959214;28;20036;-61
2022/04/07 00:09:12;;;;;;;16.83;10.00;;;9.90;99.90;;;;;;4953046;28;20042;-61
2022/04/07 00:11:38;;;;;;;16.52;11.15;;;9.80;99.90;;;;;;4967785;28;20045;-61
2022/04/07 00:14:04;;;;;;;14.63;11.20;;;9.70;99.90;;;;;;4950801;28;20070;-61
2022/04/07 00:16:29;;;;;;;15.75;11.32;;;9.70;99.90;;;;;;4951765;28;20082;-61
2022/04/07 00:18:57;;;;;;;16.23;10.77;;;9.60;99.90;;;;;;4969611;28;20157;-61
2022/04/07 00:21:35;;;;;;;14.10;10.90;;;9.60;99.90;;;;;;4956455;28;20039;-61
2022/04/07 00:24:02;;;;;;;13.70;10.77;;;9.60;99.90;;;;;;4950940;29;20050;-61
2022/04/07 00:26:28;;;;;;;14.18;11.43;;;9.60;99.90;;;;;;4956681;28;20119;-61
2022/04/07 00:28:54;;;;;;;11.95;10.45;;;9.70;99.90;;;;;;4951105;28;20058;-61
2022/04/07 00:31:19;;;;;;;11.48;10.27;;;9.90;99.90;;;;;;4951104;28;20042;-61
2022/04/07 00:33:45;;;;;;;12.23;8.63;;;10.10;99.90;;;;;;4950790;29;20043;-61
2022/04/07 00:36:11;;;;;;;14.98;11.73;;;10.10;99.90;;;;;;4955458;28;20047;-61
2022/04/07 00:38:36;;;;;;;14.32;9.95;;;10.00;99.90;;;;;;4962088;28;20055;-61
2022/04/07 00:41:02;;;;;;;13.85;11.45;;;10.00;99.90;;;;;;4950444;29;20043;-61
2022/04/07 00:43:36;;;;;;;14.15;10.15;;;9.90;99.90;;;;;;4957924;28;20094;-61
2022/04/07 00:46:03;;;;;;;12.93;10.27;;;9.90;99.90;;;;;;4946979;29;20517;-61
2022/04/07 00:48:29;;;;;;;13.07;10.10;;;9.90;99.90;;;;;;4951300;28;20058;-61
2022/04/07 00:50:55;;;;;;;12.90;9.77;;;9.90;99.90;;;;;;4951287;29;20043;-61
2022/04/07 00:53:21;;;;;;;12.35;11.05;;;9.90;99.90;;;;;;4959618;28;20074;-61
2022/04/07 00:55:50;;;;;;;12.80;10.02;;;9.90;99.90;;;;;;4958040;28;20122;-61
2022/04/07 00:58:17;;;;;;;12.38;9.40;;;9.90;99.90;;;;;;4951076;29;20074;-61
2022/04/07 01:00:42;;;;;;;13.07;9.40;;;9.90;99.90;;;;;;4965804;28;20038;-61
2022/04/07 01:03:09;;;;;;;13.45;9.57;;;9.90;99.90;;;;;;4956918;28;20042;-61
2022/04/07 01:05:34;;;;;;;13.63;9.70;;;9.90;99.90;;;;;;4968331;28;20042;-61
2022/04/07 01:08:00;;;;;;;11.75;9.13;;;9.80;99.90;;;;;;4970090;28;20069;-61
2022/04/07 01:10:26;;;;;;;13.18;9.07;;;9.80;99.90;;;;;;4957498;28;20106;-61
2022/04/07 01:12:52;;;;;;;14.90;9.48;;;9.80;99.90;;;;;;4957851;28;20043;-61
2022/04/07 01:15:17;;;;;;;12.98;9.52;;;9.80;99.90;;;;;;4949523;28;20110;-61
2022/04/07 01:17:43;;;;;;;10.30;8.30;;;9.80;99.90;;;;;;4964195;28;20059;-61
2022/04/07 01:20:10;;;;;;;13.85;10.43;;;9.90;99.90;;;;;;4957166;28;20043;-61
2022/04/07 01:22:39;;;;;;;12.35;8.95;;;9.90;99.90;;;;;;4933031;29;20055;-61
2022/04/07 01:25:05;;;;;;;12.52;9.32;;;9.90;99.90;;;;;;4954463;28;20042;-61
2022/04/07 01:27:30;;;;;;;10.85;7.25;;;9.90;99.90;;;;;;4967320;28;20038;-61
2022/04/07 01:29:57;;;;;;;12.98;9.32;;;9.90;99.90;;;;;;4958198;28;20126;-61
2022/04/07 01:32:34;;;;;;;14.30;8.90;;;9.90;99.90;;;;;;4934412;28;20050;-61
2022/04/07 01:37:40;;;;;;;12.18;8.48;;;10.00;99.90;;;;;;5259850;23;20085;-61
2022/04/07 01:40:09;;;;;;;12.30;8.57;;;9.90;99.90;;;;;;4969258;28;20042;-61
2022/04/07 01:45:11;;;;;;;13.43;7.30;;;9.80;99.90;;;;;;5440675;23;20061;-61
2022/04/07 01:47:39;;;;;;;12.23;6.88;;;9.70;99.90;;;;;;4954647;28;20064;-61
2022/04/07 01:50:07;;;;;;;11.68;7.70;;;9.80;99.90;;;;;;4964555;28;20042;-61
2022/04/07 01:52:35;;;;;;;11.55;7.40;;;9.70;99.90;;;;;;4960615;28;20039;-61
2022/04/07 02:00:15;;;;;;;8.63;6.40;;;9.70;99.90;;;;;;4902612;29;20055;-61
2022/04/07 02:02:41;;;;;;;9.80;5.97;;;9.70;99.90;;;;;;4910149;29;20036;-61
2022/04/07 02:05:11;;;;;;;10.23;7.40;;;9.60;99.90;;;;;;4904328;29;20078;-62
2022/04/07 02:07:40;;;;;;;15.07;6.70;;;9.70;99.90;;;;;;4884226;29;20077;-62
2022/04/07 02:10:08;;;;;;;11.32;6.18;;;9.70;99.90;;;;;;4899075;29;20119;-61
2022/04/07 02:15:02;;;;;;;10.43;6.15;;;9.60;99.90;;;;;;4959378;28;20043;-61
2022/04/07 02:17:27;;;;;;;11.60;6.95;;;9.60;99.90;;;;;;4963261;28;20031;-61
2022/04/07 02:19:55;;;;;;;12.63;6.22;;;9.70;99.90;;;;;;4968071;28;20529;-61
2022/04/07 02:24:57;;;;;;;12.88;6.88;;;9.70;99.90;;;;;;5445445;23;20150;-61
2022/04/07 02:27:23;;;;;;;14.20;7.18;;;9.60;99.90;;;;;;4942191;29;20042;-61
2022/04/07 02:29:49;;;;;;;12.88;7.30;;;9.60;99.90;;;;;;4929798;29;20452;-61
2022/04/07 02:32:14;;;;;;;12.93;6.38;;;9.50;99.90;;;;;;4932210;29;20059;-61
2022/04/07 02:34:41;;;;;;;12.45;7.32;;;9.50;99.90;;;;;;4925165;29;20092;-61
2022/04/07 02:37:08;;;;;;;13.52;6.88;;;9.60;99.90;;;;;;4941737;29;20054;-61
2022/04/07 02:39:34;;;;;;;11.20;6.45;;;9.60;99.90;;;;;;4941504;28;20039;-61
2022/04/07 02:41:59;;;;;;;15.10;6.72;;;9.70;99.90;;;;;;4947955;29;20150;-61
2022/04/07 02:44:25;;;;;;;14.75;6.57;;;9.60;99.90;;;;;;4948755;29;20042;-61
2022/04/07 02:46:51;;;;;;;14.60;6.30;;;9.60;99.90;;;;;;4932357;29;20498;-61
2022/04/07 02:49:17;;;;;;;10.75;6.15;;;9.70;99.90;;;;;;5299568;23;20501;-61
2022/04/07 02:51:43;;;;;;;10.57;5.60;;;9.70;99.90;;;;;;4950519;28;20043;-61
2022/04/07 02:54:09;;;;;;;12.90;5.70;;;9.80;99.90;;;;;;4949851;28;20051;-61
2022/04/07 02:56:34;;;;;;;13.05;7.03;;;9.80;99.90;;;;;;4942225;28;20036;-62
2022/04/07 02:59:00;;;;;;;12.27;6.45;;;9.70;99.90;;;;;;4945641;28;20390;-61
2022/04/07 03:01:26;;;;;;;17.67;7.20;;;9.60;99.90;;;;;;4948852;28;20046;-61
2022/04/07 03:03:55;;;;;;;12.80;6.03;;;9.60;99.90;;;;;;4943355;28;20070;-61
2022/04/07 03:06:24;;;;;;;15.23;6.53;;;9.40;99.90;;;;;;4942001;28;20050;-61
2022/04/07 03:08:50;;;;;;;14.07;7.45;;;9.40;99.90;;;;;;4958345;28;20126;-61
2022/04/07 03:11:17;;;;;;;13.50;7.35;;;9.40;99.90;;;;;;4950775;28;20054;-62
2022/04/07 03:13:43;;;;;;;11.38;6.18;;;9.40;99.90;;;;;;4946647;28;20063;-61
2022/04/07 03:18:44;;;;;;;12.35;7.57;;;9.30;99.90;;;;;;5692336;23;20061;-62
2022/04/07 03:21:09;;;;;;;13.50;6.95;;;9.30;99.90;;;;;;4963726;28;20038;-61
2022/04/07 03:23:35;;;;;;;13.10;7.32;;;9.30;99.90;;;;;;4963137;28;20498;-61
2022/04/07 03:26:04;;;;;;;13.88;6.70;;;9.30;99.90;;;;;;4954262;28;20864;-61
2022/04/07 03:28:29;;;;;;;15.60;7.88;;;9.20;99.90;;;;;;5187388;23;20051;-61
2022/04/07 03:30:55;;;;;;;19.73;7.15;;;9.20;99.90;;;;;;4952476;28;20035;-61
2022/04/07 03:33:20;;;;;;;12.90;7.15;;;9.20;99.90;;;;;;4966502;23;20047;-59
2022/04/07 03:35:46;;;;;;;15.32;7.15;;;9.20;99.90;;;;;;4935726;29;20047;-59
2022/04/07 03:38:11;;;;;;;16.40;7.35;;;9.20;99.90;;;;;;4948037;29;20051;-59
2022/04/07 03:40:37;;;;;;;12.98;6.30;;;9.20;99.90;;;;;;4934023;29;20043;-59
2022/04/07 03:43:03;;;;;;;14.95;6.55;;;9.20;99.90;;;;;;4939657;29;20123;-59
2022/04/07 03:45:28;;;;;;;14.48;6.00;;;9.10;99.90;;;;;;4923578;29;20043;-59
2022/04/07 03:47:54;;;;;;;15.45;6.00;;;9.10;99.90;;;;;;4926097;29;20047;-59
2022/04/07 03:50:19;;;;;;;15.85;7.47;;;9.10;99.90;;;;;;4932818;29;20070;-59
2022/04/07 03:52:45;;;;;;;15.02;6.32;;;9.20;99.90;;;;;;4930050;29;20077;-59
2022/04/07 03:55:10;;;;;;;14.57;5.45;;;9.20;99.90;;;;;;4918415;29;20612;-59
2022/04/07 03:57:36;;;;;;;15.32;6.07;;;9.20;99.90;;;;;;4929263;29;20074;-59
2022/04/07 04:00:04;;;;;;;10.38;5.00;;;9.30;99.90;;;;;;4932858;29;20051;-59
2022/04/07 04:02:29;;;;;;;16.17;5.18;;;9.40;99.90;;;;;;4917470;29;20036;-59
2022/04/07 04:04:55;;;;;;;15.48;5.28;;;9.40;99.90;;;;;;4924101;29;20043;-59
2022/04/07 04:07:21;;;;;;;15.00;4.50;;;9.50;99.90;;;;;;4931459;29;20062;-59
2022/04/07 04:09:47;;;;;;;16.25;5.20;;;9.50;99.90;;;;;;4930095;29;20044;-59
2022/04/07 04:12:13;;;;;;;14.80;5.22;;;9.40;99.90;;;;;;4931133;29;20044;-59
2022/04/07 04:14:38;;;;;;;15.15;5.20;;;9.40;99.90;;;;;;4931743;29;20086;-59
2022/04/07 04:17:04;;;;;;;13.38;5.95;;;9.40;99.90;;;;;;4932615;29;20676;-59
2022/04/07 04:19:29;;;;;;;15.98;5.10;;;9.40;99.90;;;;;;4920596;29;20119;-59
2022/04/07 04:21:56;;;;;;;16.92;5.13;;;9.40;99.90;;;;;;4930625;29;20036;-59
2022/04/07 04:24:21;;;;;;;14.98;5.80;;;9.40;99.90;;;;;;4931989;29;20083;-59
2022/04/07 04:26:47;;;;;;;14.68;5.40;;;9.40;99.90;;;;;;4932860;29;20094;-59
2022/04/07 04:29:13;;;;;;;19.77;6.03;;;9.50;99.90;;;;;;4921250;29;20820;-59
2022/04/07 04:31:38;;;;;;;16.67;5.32;;;9.50;99.90;;;;;;4929842;29;20040;-59
2022/04/07 04:34:04;;;;;;;11.38;5.80;;;9.50;99.90;;;;;;4931876;29;20039;-59
2022/04/07 04:36:30;;;;;;;17.58;6.28;;;9.50;99.90;;;;;;4925904;29;21112;-59
2022/04/07 04:38:55;;;;;;;14.38;5.95;;;9.40;99.90;;;;;;4931600;29;20058;-59
2022/04/07 04:41:21;;;;;;;14.52;5.47;;;9.40;99.90;;;;;;4931754;29;20036;-59
2022/04/07 04:43:47;;;;;;;22.67;6.65;;;9.40;99.90;;;;;;4931517;29;20039;-59
2022/04/07 04:46:12;;;;;;;14.65;5.97;;;9.40;99.90;;;;;;4918114;29;20036;-59
2022/04/07 04:48:38;;;;;;;21.88;6.40;;;9.30;99.90;;;;;;4921626;29;20153;-59
2022/04/07 04:51:06;;;;;;;18.63;7.30;;;9.30;99.90;;;;;;4924355;29;20047;-59
2022/04/07 04:53:32;;;;;;;18.50;7.55;;;9.30;99.90;;;;;;4902497;29;20110;-59
2022/04/07 04:55:58;;;;;;;21.27;7.53;;;9.30;99.90;;;;;;4930450;29;20569;-59
2022/04/07 04:58:23;;;;;;;18.48;6.82;;;9.30;99.90;;;;;;4921330;29;20043;-59
2022/04/07 05:00:49;;;;;;;16.17;6.63;;;9.40;99.90;;;;;;4930021;29;20081;-59
2022/04/07 05:03:16;;;;;;;18.45;6.93;;;9.40;99.90;;;;;;4919026;29;20040;-59
2022/04/07 05:05:41;;;;;;;19.23;7.55;;;9.40;99.90;;;;;;4932453;29;20044;-59
2022/04/07 05:08:07;;;;;;;15.73;6.53;;;9.40;99.90;;;;;;4931678;29;20043;-59
2022/04/07 05:10:33;;;;;;;15.52;6.53;;;9.40;99.90;;;;;;4928027;29;20063;-59
2022/04/07 05:12:58;;;;;;;18.20;6.82;;;9.40;99.90;;;;;;4922375;29;20043;-59
2022/04/07 05:15:24;;;;;;;15.40;6.57;;;9.30;99.90;;;;;;4931530;29;20495;-59
2022/04/07 05:17:51;;;;;;;14.43;5.93;;;9.40;99.90;;;;;;4931114;29;20051;-60
2022/04/07 05:20:17;;;;;;;13.60;5.60;;;9.30;99.90;;;;;;4926262;29;20038;-59
2022/04/07 05:22:43;;;;;;;20.05;6.65;;;9.30;99.90;;;;;;4930114;29;20098;-58
2022/04/07 05:25:09;;;;;;;14.85;6.15;;;9.30;99.90;;;;;;4919670;29;20533;-58
2022/04/07 05:27:36;;;;;;;15.27;6.78;;;9.30;99.90;;;;;;4911957;29;20054;-59
2022/04/07 05:30:06;;;;;;;14.15;5.43;;;9.20;99.90;;;;;;4923210;29;20051;-59
2022/04/07 05:32:32;;;;;;;11.80;5.55;;;9.30;99.90;;;;;;4930921;29;20040;-59
2022/04/07 05:34:57;;;;;;;12.02;5.60;;;9.40;99.90;;;;;;4922797;29;20505;-59
2022/04/07 05:37:24;;;;;;;14.13;5.45;;;9.40;99.90;;;;;;4930336;29;20075;-59
2022/04/07 05:39:51;;;;;;;14.30;5.65;;;9.50;99.90;;;;;;4931154;29;20047;-60
2022/04/07 05:42:17;;;;;;;12.07;5.47;;;9.50;99.90;;;;;;4923828;29;20036;-59
2022/04/07 05:44:43;;;;;;;9.70;5.15;;;9.50;99.90;;;;;;4926972;29;20490;-60
2022/04/07 05:47:09;;;;;;;12.35;5.50;;;9.50;99.90;;;;;;4930553;29;20047;-59
2022/04/07 05:49:35;;;;;;;16.05;6.15;;;9.50;99.90;;;;;;4912485;29;20131;-59
2022/04/07 05:52:03;;;;;;;11.73;5.22;;;9.50;99.90;;;;;;4922798;29;20139;-59
2022/04/07 05:54:29;;;;;;;11.10;4.93;;;9.40;99.90;;;;;;4929798;29;20047;-60
2022/04/07 05:56:54;;;;;;;14.75;5.78;;;9.40;99.90;;;;;;4930921;29;20075;-59
2022/04/07 05:59:20;;;;;;;10.80;4.80;;;9.40;99.90;;;;;;4919055;29;20050;-59
2022/04/07 06:01:46;;;;;;;12.00;5.55;;;9.40;99.90;;;;;;4929308;29;20522;-59
2022/04/07 06:04:11;;;;;;;14.02;5.80;;;9.30;99.90;;;;;;4936521;29;20034;-61
2022/04/07 06:06:37;;;;;;;15.18;5.07;;;9.30;99.90;;;;;;4951426;29;20039;-59
2022/04/07 06:09:03;;;;;;;38.53;5.25;;;9.30;99.90;;;;;;4931524;29;20541;-56
2022/04/07 06:11:28;;;;;;;4.80;1.20;;;8.80;99.90;;;;;;4923226;29;20167;-54
2022/04/07 06:13:54;;;;;;;3.47;0.95;;;6.70;99.90;;;;;;4932555;29;20410;-56
2022/04/07 06:16:20;;;;;;;4.97;1.00;;;6.00;99.90;;;;;;4920313;29;20050;-56
2022/04/07 06:18:45;;;;;;;2.20;1.02;;;5.80;99.90;;;;;;4930443;29;20036;-52
2022/04/07 06:21:11;;;;;;;1.35;0.98;;;5.70;99.90;;;;;;4933810;29;20040;-55
2022/04/07 06:23:37;;;;;;;5.50;1.30;;;5.70;99.90;;;;;;4930432;29;20589;-54
2022/04/07 06:26:02;;;;;;;4.13;1.33;;;5.70;99.90;;;;;;4932987;29;20130;-56
2022/04/07 06:28:28;;;;;;;6.35;1.40;;;5.70;99.90;;;;;;4933445;29;20036;-54
2022/04/07 06:30:54;;;;;;;7.38;1.50;;;5.70;99.90;;;;;;4933841;29;20043;-56
2022/04/07 06:33:21;;;;;;;5.57;1.60;;;5.70;99.90;;;;;;4926752;29;20044;-54
2022/04/07 06:35:51;;;;;;;4.35;1.20;;;5.70;99.90;;;;;;4933155;29;20062;-54
2022/04/07 06:38:17;;;;;;;6.68;1.38;;;5.70;99.90;;;;;;4933603;29;20103;-55
2022/04/07 06:40:43;;;;;;;4.57;1.20;;;5.80;99.90;;;;;;4933544;29;20047;-54
2022/04/07 06:43:08;;;;;;;4.88;1.15;;;5.80;99.90;;;;;;4918110;29;20043;-55
2022/04/07 06:45:34;;;;;;;5.35;1.77;;;5.80;99.90;;;;;;4896909;29;20036;-53
2022/04/07 06:47:59;;;;;;;3.13;1.20;;;5.80;99.90;;;;;;4902203;29;20055;-53
2022/04/07 06:50:26;;;;;;;4.18;1.15;;;5.80;99.90;;;;;;4914754;29;20336;-54
2022/04/07 06:52:53;;;;;;;3.90;1.33;;;5.70;99.90;;;;;;4924603;29;20458;-54
2022/04/07 06:55:18;;;;;;;5.38;1.42;;;5.60;99.90;;;;;;4933281;29;20126;-55
2022/04/07 06:57:54;;;;;;;6.72;1.20;;;5.60;99.90;;;;;;4927693;29;20450;-54
2022/04/07 07:00:21;;;;;;;4.00;1.15;;;5.50;99.90;;;;;;4928195;29;20040;-55
2022/04/07 07:02:54;;;;;;;1.45;1.00;;;5.50;99.90;;;;;;4923646;29;20091;-55
2022/04/07 07:05:21;;;;;;;6.50;1.23;;;5.50;99.90;;;;;;4929822;29;20059;-56
2022/04/07 07:07:47;;;;;;;2.00;1.20;;;5.50;99.90;;;;;;4926467;29;20039;-58
2022/04/07 07:10:12;;;;;;;0.90;0.80;;;5.40;99.90;;;;;;4937983;29;20063;-54
2022/04/07 07:12:39;;;;;;;2.72;1.00;;;5.30;99.90;;;;;;4939423;29;20035;-56
2022/04/07 07:15:05;;;;;;;4.75;1.50;;;5.20;99.90;;;;;;4936058;29;20039;-54
2022/04/07 07:17:33;;;;;;;1.10;0.85;;;5.20;99.90;;;;;;4937014;29;20045;-58
2022/04/07 07:20:07;;;;;;;1.40;0.90;;;5.10;99.90;;;;;;4939194;29;20435;-57
2022/04/07 07:22:33;;;;;;;2.65;1.10;;;5.20;99.90;;;;;;4927966;29;20043;-56
2022/04/07 07:24:59;;;;;;;2.00;1.40;;;5.20;99.90;;;;;;4938541;29;20071;-55
2022/04/07 07:27:24;;;;;;;2.03;1.15;;;5.10;99.90;;;;;;4938902;29;20040;-57
2022/04/07 07:29:51;;;;;;;3.15;1.40;;;5.10;99.90;;;;;;4937222;29;20488;-55
2022/04/07 07:32:16;;;;;;;2.85;1.27;;;5.20;99.90;;;;;;4924688;29;20120;-58
2022/04/07 07:34:42;;;;;;;4.32;1.25;;;5.10;99.90;;;;;;4936442;29;20115;-58
2022/04/07 07:37:08;;;;;;;5.80;1.40;;;5.10;99.90;;;;;;4939591;29;20085;-56
2022/04/07 07:39:33;;;;;;;4.57;1.00;;;5.00;99.90;;;;;;4923478;29;20037;-57
2022/04/07 07:41:59;;;;;;;6.35;1.40;;;5.00;99.90;;;;;;4930495;29;20518;-57
2022/04/07 07:44:24;;;;;;;4.88;1.50;;;5.00;99.90;;;;;;4937503;29;20462;-58
2022/04/07 07:46:50;;;;;;;6.63;1.50;;;5.00;99.90;;;;;;4939399;29;20035;-56
2022/04/07 07:49:16;;;;;;;6.97;1.42;;;5.10;99.90;;;;;;4928152;29;20074;-57
2022/04/07 07:51:42;;;;;;;5.32;1.20;;;5.10;99.90;;;;;;4934357;29;20040;-58
2022/04/07 07:54:08;;;;;;;3.58;1.48;;;5.10;99.90;;;;;;4935315;29;20044;-59
2022/04/07 07:56:34;;;;;;;2.30;1.27;;;5.10;99.90;;;;;;4930363;29;20501;-58
2022/04/07 07:58:59;;;;;;;2.78;1.50;;;5.20;99.90;;;;;;4923709;29;20513;-58
2022/04/07 08:01:26;;;;;;;5.07;1.30;;;5.20;99.90;;;;;;4927945;29;20115;-56
2022/04/07 08:03:52;;;;;;;4.43;1.35;;;5.20;99.90;;;;;;4942702;29;20039;-57
2022/04/07 08:06:17;;;;;;;6.35;1.23;;;5.30;99.90;;;;;;4945970;29;20411;-57
2022/04/07 08:08:44;;;;;;;6.18;1.48;;;5.30;99.90;;;;;;4935869;29;20047;-57
2022/04/07 08:11:10;;;;;;;3.95;1.52;;;5.30;99.90;;;;;;4937757;29;20047;-57
2022/04/07 08:13:36;;;;;;;2.47;1.30;;;5.40;99.90;;;;;;4928373;29;20051;-58
2022/04/07 08:16:01;;;;;;;7.03;1.60;;;5.40;99.90;;;;;;4935727;29;20043;-59
2022/04/07 08:18:27;;;;;;;3.85;1.23;;;5.50;99.90;;;;;;4935950;29;20414;-58
2022/04/07 08:20:53;;;;;;;1.42;1.10;;;5.60;99.90;;;;;;4929937;29;20040;-57
2022/04/07 08:23:18;;;;;;;2.08;1.38;;;5.60;99.90;;;;;;4922267;29;20139;-58
2022/04/07 08:25:44;;;;;;;2.38;1.10;;;5.70;99.90;;;;;;4935470;29;20043;-57
2022/04/07 08:28:10;;;;;;;3.17;1.10;;;5.70;99.90;;;;;;4935936;29;20052;-59
2022/04/07 08:30:35;;;;;;;5.97;1.33;;;5.70;99.90;;;;;;4929103;29;20110;-59
2022/04/07 08:33:02;;;;;;;3.20;1.30;;;5.70;99.90;;;;;;4934800;29;20102;-58
2022/04/07 08:35:28;;;;;;;3.42;1.17;;;5.70;99.90;;;;;;4941372;29;20117;-59
2022/04/07 08:37:54;;;;;;;4.88;1.30;;;5.80;99.90;;;;;;4932981;29;20126;-59
2022/04/07 08:40:21;;;;;;;2.70;1.17;;;5.80;99.90;;;;;;4933328;29;20110;-59
2022/04/07 08:42:47;;;;;;;3.53;1.30;;;5.90;99.90;;;;;;4932032;29;20115;-58
2022/04/07 08:45:13;;;;;;;4.75;1.40;;;6.00;99.90;;;;;;4933001;29;20131;-59
2022/04/07 08:47:40;;;;;;;4.47;1.20;;;6.10;99.90;;;;;;4926301;29;20115;-59
2022/04/07 08:50:07;;;;;;;3.70;1.00;;;6.20;99.90;;;;;;4935198;29;20039;-58
2022/04/07 08:52:33;;;;;;;4.85;1.10;;;6.10;99.90;;;;;;4918100;29;20050;-59
2022/04/07 08:55:00;;;;;;;3.45;1.00;;;6.00;99.90;;;;;;4931037;29;20549;-59
2022/04/07 08:57:26;;;;;;;6.80;1.40;;;5.90;99.90;;;;;;4932587;29;20099;-58
2022/04/07 08:59:52;;;;;;;4.53;1.30;;;6.20;99.90;;;;;;4935139;29;20047;-59
2022/04/07 09:02:18;;;;;;;2.80;1.30;;;6.50;99.90;;;;;;4924208;29;20032;-58
2022/04/07 09:04:44;;;;;;;4.15;1.30;;;6.70;99.90;;;;;;4930962;29;20044;-59
2022/04/07 09:07:12;;;;;;;3.38;1.40;;;6.90;99.90;;;;;;4928199;29;20040;-59
2022/04/07 09:09:38;;;;;;;3.25;1.10;;;7.00;99.90;;;;;;4934366;29;20044;-58
2022/04/07 09:12:04;;;;;;;2.38;1.25;;;7.10;99.90;;;;;;4935161;29;20046;-59
2022/04/07 09:14:35;;;;;;;4.22;1.42;;;7.20;99.90;;;;;;4927667;29;20047;-59
2022/04/07 09:17:00;;;;;;;3.65;1.20;;;7.40;99.90;;;;;;4934148;29;20039;-59
2022/04/07 09:19:28;;;;;;;3.35;1.40;;;7.50;99.90;;;;;;4926955;29;20047;-60
2022/04/07 09:22:13;;;;;;;3.47;1.63;;;7.70;99.90;;;;;;4925568;29;20036;-58
2022/04/07 09:24:41;;;;;;;3.35;1.75;;;7.90;99.90;;;;;;4933734;29;20118;-59
2022/04/07 09:27:09;;;;;;;7.05;1.70;;;7.90;99.90;;;;;;4934960;29;20498;-59
2022/04/07 09:29:46;;;;;;;5.45;1.55;;;8.10;99.90;;;;;;4930914;29;20047;-59
2022/04/07 09:32:30;;;;;;;7.13;2.15;;;8.10;99.90;;;;;;4934126;29;20131;-59
2022/04/07 09:35:00;;;;;;;7.47;2.22;;;8.30;99.90;;;;;;4934608;29;20055;-59
2022/04/07 09:37:28;;;;;;;7.85;1.60;;;8.40;99.90;;;;;;4930420;29;20048;-59
2022/04/07 09:40:14;;;;;;;5.10;2.03;;;8.40;99.90;;;;;;4934153;29;20119;-60
2022/04/07 09:42:41;;;;;;;7.18;2.17;;;8.70;99.90;;;;;;4934300;29;20047;-59
2022/04/07 09:45:11;;;;;;;4.80;1.73;;;8.80;99.90;;;;;;4930338;29;20039;-58
2022/04/07 09:47:42;;;;;;;7.28;2.30;;;8.70;99.90;;;;;;4923505;29;20050;-59
2022/04/07 09:50:23;;;;;;;7.70;2.25;;;9.00;99.90;;;;;;4934279;29;20046;-58
2022/04/07 09:52:57;;;;;;;11.68;3.22;;;9.00;99.90;;;;;;4926027;29;20043;-59
2022/04/07 09:55:41;;;;;;;8.85;2.35;;;9.10;99.90;;;;;;4953073;23;20066;-57
2022/04/07 09:58:08;;;;;;;9.18;2.20;;;9.00;99.90;;;;;;4958582;28;20039;-60
2022/04/07 10:00:35;;;;;;;7.82;1.90;;;9.20;99.90;;;;;;4962560;28;20043;-59
2022/04/07 10:03:02;;;;;;;5.82;2.20;;;9.00;99.90;;;;;;4955526;28;20039;-56
2022/04/07 10:05:28;;;;;;;8.60;2.58;;;9.30;99.90;;;;;;4962700;28;20094;-58
2022/04/07 10:07:57;;;;;;;9.13;2.47;;;9.40;99.90;;;;;;4952952;28;20039;-60
2022/04/07 10:10:23;;;;;;;5.38;2.08;;;9.30;99.90;;;;;;4945067;28;20043;-59
2022/04/07 10:12:49;;;;;;;6.40;2.25;;;9.40;99.90;;;;;;4954016;28;20478;-60
2022/04/07 10:15:18;;;;;;;5.70;2.17;;;9.30;99.90;;;;;;4952961;28;20039;-60
2022/04/07 10:17:45;;;;;;;6.38;2.30;;;9.40;99.90;;;;;;4951406;28;20035;-60
2022/04/07 10:20:17;;;;;;;11.10;2.60;;;9.30;99.90;;;;;;4958446;28;20614;-60
2022/04/07 10:23:07;;;;;;;12.43;2.88;;;9.20;99.90;;;;;;4952540;28;20039;-59
2022/04/07 10:25:38;;;;;;;9.00;2.65;;;9.30;99.90;;;;;;4951859;28;20122;-60
2022/04/07 10:28:04;;;;;;;11.13;2.63;;;9.30;99.90;;;;;;4964374;28;20045;-60
2022/04/07 10:30:32;;;;;;;7.07;2.63;;;9.30;99.90;;;;;;4956602;28;20494;-60
2022/04/07 10:32:58;;;;;;;9.65;2.83;;;9.30;99.90;;;;;;4951353;28;20047;-59
2022/04/07 10:35:30;;;;;;;11.32;2.53;;;9.20;99.90;;;;;;4952949;28;20043;-58
2022/04/07 10:37:56;;;;;;;;;;;9.00;99.90;;;;;;4963922;28;20247;-58
2022/04/07 10:40:35;;;;;;;12.65;2.97;;;8.90;99.90;;;;;;4962628;28;20343;-59
2022/04/07 10:43:04;;;;;;;12.85;2.80;;;9.00;99.90;;;;;;4965147;28;20517;-59
2022/04/07 10:45:33;;;;;;;14.00;3.28;;;9.30;99.90;;;;;;4965969;28;20054;-59
2022/04/07 10:48:30;;;;;;;12.70;3.20;;;9.40;99.90;;;;;;4951442;28;20757;-59
2022/04/07 10:50:59;;;;;;;12.48;3.20;;;9.60;99.90;;;;;;4960117;28;20092;-60
2022/04/07 10:53:36;;;;;;;11.65;2.95;;;10.10;99.90;;;;;;4964157;28;20062;-60
2022/04/07 10:56:08;;;;;;;10.82;3.05;;;10.20;99.90;;;;;;4935238;29;20043;-61
2022/04/07 10:58:44;;;;;;;14.95;3.05;;;10.20;99.90;;;;;;4951477;28;20115;-60
2022/04/07 11:01:42;;;;;;;11.57;2.78;;;10.20;99.90;;;;;;4958476;28;20039;-60
2022/04/07 11:04:17;;;;;;;9.82;2.53;;;10.30;99.90;;;;;;4952547;28;20074;-61
2022/04/07 11:09:55;;;;;;;9.80;2.50;;;10.30;99.90;;;;;;4966128;28;20043;-61
2022/04/07 11:12:28;;;;;;;11.02;2.65;;;10.20;99.90;;;;;;4959864;28;20813;-61
2022/04/07 11:15:16;;;;;;;16.83;3.47;;;10.10;99.90;;;;;;4952270;28;20043;-61
2022/04/07 11:17:42;;;;;;;11.60;3.05;;;10.30;99.90;;;;;;4966018;28;20656;-61
2022/04/07 11:20:15;;;;;;;10.88;2.42;;;10.20;99.90;;;;;;4963713;28;20042;-59
2022/04/07 11:22:48;;;;;;;12.30;3.00;;;9.70;99.90;;;;;;4960360;28;20746;-60
2022/04/07 11:25:14;;;;;;;12.65;2.70;;;9.50;99.90;;;;;;4950082;28;20043;-60
2022/04/07 11:27:45;;;;;;;12.32;2.80;;;9.40;99.90;;;;;;4967282;28;20035;-62
2022/04/07 11:30:13;;;;;;;10.55;2.80;;;9.30;99.90;;;;;;4952321;28;20050;-62
2022/04/07 11:32:58;;;;;;;12.85;3.35;;;9.30;99.90;;;;;;4934099;28;20047;-62
2022/04/07 11:35:24;;;;;;;11.45;2.65;;;9.50;99.90;;;;;;4960820;28;20097;-61
2022/04/07 11:37:51;;;;;;;12.30;2.80;;;10.00;99.90;;;;;;4953401;28;20506;-61
2022/04/07 11:40:16;;;;;;;8.00;2.35;;;10.00;99.90;;;;;;4952217;29;20039;-61
2022/04/07 11:42:42;;;;;;;11.40;2.90;;;10.00;99.90;;;;;;4952698;28;20373;-61
2022/04/07 11:45:08;;;;;;;11.25;3.05;;;10.10;99.90;;;;;;4966162;28;20115;-60
2022/04/07 11:47:36;;;;;;;10.27;2.88;;;10.40;99.90;;;;;;4964272;28;20050;-60
2022/04/07 11:50:03;;;;;;;7.72;2.60;;;10.60;99.90;;;;;;4948688;28;20165;-59
2022/04/07 11:52:34;;;;;;;15.68;3.00;;;10.60;99.90;;;;;;4967098;28;20073;-58
2022/04/07 11:55:02;;;;;;;9.27;2.55;;;10.60;99.90;;;;;;4938094;29;20039;-58
2022/04/07 11:57:30;;;;;;;13.38;2.60;;;10.50;99.90;;;;;;4960659;28;20123;-59
2022/04/07 12:00:01;;;;;;;10.00;2.75;;;10.40;99.90;;;;;;4961107;28;20653;-59
2022/04/07 12:02:27;;;;;;;;;;;10.50;99.90;;;;;;4970428;28;20034;-59
2022/04/07 12:05:00;;;;;;;11.38;3.13;;;10.70;99.90;;;;;;4960807;28;20006;-59
2022/04/07 12:07:27;;;;;;;11.88;2.75;;;10.90;99.90;;;;;;4946790;28;20050;-59
2022/04/07 12:10:04;;;;;;;16.45;2.88;;;11.00;99.90;;;;;;4962833;28;20382;-59
2022/04/07 12:12:30;;;;;;;12.27;3.10;;;11.10;99.90;;;;;;4955348;29;20047;-60
2022/04/07 12:14:56;;;;;;;11.25;3.20;;;11.20;99.90;;;;;;4955496;28;20121;-60
2022/04/07 12:17:22;;;;;;;9.35;2.78;;;11.20;99.90;;;;;;4959087;28;20075;-60
2022/04/07 12:19:49;;;;;;;10.95;2.70;;;11.10;99.90;;;;;;4968204;28;20094;-60
2022/04/07 12:22:15;;;;;;;13.77;3.17;;;10.90;99.90;;;;;;4960335;28;20070;-59
2022/04/07 12:25:00;;;;;;;12.25;2.75;;;10.70;99.90;;;;;;4966986;28;20540;-59
2022/04/07 12:27:34;;;;;;;11.75;2.75;;;10.60;99.90;;;;;;4963167;28;20670;-61
2022/04/07 12:30:01;;;;;;;11.98;2.95;;;10.50;99.90;;;;;;4960377;28;20097;-61
2022/04/07 12:32:43;;;;;;;12.90;3.00;;;10.50;99.90;;;;;;4970083;28;20401;-62
2022/04/07 12:35:09;;;;;;;15.73;3.22;;;10.70;99.90;;;;;;4963905;28;20047;-61
2022/04/07 12:37:40;;;;;;;10.18;2.75;;;11.00;99.90;;;;;;4970707;28;20101;-61
2022/04/07 12:40:15;;;;;;;14.75;2.70;;;11.30;99.90;;;;;;4962607;28;20050;-61
2022/04/07 12:42:58;;;;;;;10.85;2.63;;;11.50;99.90;;;;;;4969279;28;20497;-61
2022/04/07 12:45:24;;;;;;;12.20;2.60;;;11.50;99.90;;;;;;4951641;28;20039;-61
2022/04/07 12:48:05;;;;;;;11.13;2.75;;;11.50;99.90;;;;;;4953917;28;20086;-61
2022/04/07 12:50:32;;;;;;;12.20;2.97;;;11.50;99.90;;;;;;4966190;28;20030;-61
2022/04/07 12:52:58;;;;;;;13.68;2.60;;;11.60;99.90;;;;;;4951533;28;20395;-61
2022/04/07 12:55:35;;;;;;;13.60;3.13;;;11.60;99.90;;;;;;4950392;28;20521;-61
2022/04/07 12:58:01;;;;;;;11.23;2.65;;;11.60;99.90;;;;;;4969609;28;20050;-61
2022/04/07 13:00:28;;;;;;;10.45;2.03;;;11.50;99.90;;;;;;4955506;28;20417;-61
2022/04/07 13:02:55;;;;;;;8.93;2.30;;;11.60;99.90;;;;;;4950323;29;20074;-61
2022/04/07 13:05:26;;;;;;;9.75;2.80;;;11.50;99.90;;;;;;4958304;28;20047;-61
2022/04/07 13:08:02;;;;;;;11.88;2.33;;;11.40;99.90;;;;;;4940929;28;20417;-61
2022/04/07 13:10:29;;;;;;;12.90;2.63;;;11.50;99.90;;;;;;4951186;28;20046;-61
2022/04/07 13:12:56;;;;;;;11.05;2.47;;;11.50;99.90;;;;;;4935237;28;20058;-63